createdAt,value
2019-05-30T00:08:32.680Z,20.00
2019-05-30T00:21:39.953Z,20.00
2019-05-30T00:34:47.138Z,20.10
2019-05-30T01:00:59.034Z,20.00
2019-05-30T01:27:10.609Z,20.00
2019-05-30T01:40:17.946Z,20.00
2019-05-30T01:53:25.192Z,20.00
2019-05-30T02:06:32.519Z,20.00
2019-05-30T02:19:39.773Z,20.00
2019-05-30T02:32:47.068Z,20.00
2019-05-30T02:46:12.225Z,20.00
2019-05-30T02:59:33.246Z,20.00
2019-05-30T03:12:56.047Z,20.00
2019-05-30T03:26:18.868Z,20.00
2019-05-30T03:39:41.814Z,19.90
2019-05-30T03:53:05.323Z,19.90
2019-05-30T04:06:27.343Z,19.90
2019-05-30T04:19:50.210Z,20.00
2019-05-30T04:33:20.353Z,20.00
2019-05-30T04:46:35.787Z,20.00
2019-05-30T04:59:58.539Z,20.00
2019-05-30T05:13:22.544Z,20.00
2019-05-30T05:26:44.180Z,20.00
2019-05-30T05:53:08.647Z,20.00
2019-05-30T06:19:27.472Z,20.00
2019-05-30T06:32:49.149Z,20.20
2019-05-30T06:46:11.970Z,20.20
2019-05-30T07:12:36.437Z,20.30
2019-05-30T07:51:55.774Z,20.30
2019-05-30T08:05:02.945Z,20.30
2019-05-30T08:18:10.302Z,20.40
2019-05-30T08:31:17.481Z,20.40
2019-05-30T08:44:24.791Z,20.10
2019-05-30T08:57:32.402Z,20.00
2019-05-30T09:10:55.631Z,19.90
2019-05-30T09:24:18.458Z,20.10
2019-05-30T09:37:41.813Z,20.30
2019-05-30T09:51:04.120Z,20.30
2019-05-30T10:04:26.845Z,20.30
2019-05-30T10:17:52.422Z,20.30
2019-05-30T10:31:12.398Z,20.30
2019-05-30T10:58:10.458Z,20.20
2019-05-30T11:11:18.794Z,20.30
2019-05-30T11:26:38.476Z,20.40
2019-05-30T11:40:01.131Z,20.40
2019-05-30T11:53:23.892Z,20.40
2019-05-30T12:20:21.401Z,20.40
2019-05-30T12:33:28.586Z,20.50
2019-05-30T12:46:35.867Z,20.50
2019-05-30T12:59:43.148Z,20.50
2019-05-30T13:12:50.315Z,20.50
2019-05-30T13:26:14.458Z,20.50
2019-05-30T13:39:37.370Z,20.60
2019-05-30T13:53:00.897Z,20.50
2019-05-30T14:19:25.187Z,20.50
2019-05-30T14:32:32.046Z,20.60
2019-05-30T14:45:39.318Z,20.60
2019-05-30T14:58:46.513Z,20.50
2019-05-30T15:11:53.665Z,20.60
2019-05-30T15:25:00.874Z,20.60
2019-05-30T15:38:24.339Z,20.60
2019-05-30T15:51:47.133Z,20.60
2019-05-30T16:05:10.494Z,20.60
2019-05-30T16:18:32.854Z,20.60
2019-05-30T16:31:55.587Z,20.60
2019-05-30T16:45:21.608Z,20.50
2019-05-30T16:58:41.202Z,20.50
2019-05-30T17:12:04.003Z,20.60
2019-05-30T17:25:27.202Z,20.50
2019-05-30T17:51:51.863Z,20.50
2019-05-30T18:18:58.202Z,20.50
2019-05-30T18:45:56.124Z,20.50
2019-05-30T18:59:03.469Z,20.60
2019-05-30T19:26:08.996Z,20.60
2019-05-30T19:39:31.514Z,20.60
2019-05-30T19:52:54.200Z,20.60
2019-05-30T20:06:17.058Z,20.60
2019-05-30T20:19:40.012Z,20.60
2019-05-30T20:33:02.645Z,20.60
